Time;durP1;ratioP1;P1;durP2;ratioP2;P2;SDS_P1;SDS_P2;PMS_P1;PMS_P2;Temp;Humidity;BMP_temperature;BMP_pressure;BME280_temperature;BME280_humidity;BME280_pressure;Samples;Min_cycle;Max_cycle;Signal;HPM_P1;HPM_P2
2022/10/31 00:00:17;;;;;;;13.95;7.88;;;;;;;11.30;62.55;100365.84;5088818;28;20047;-28
2022/10/31 00:02:42;;;;;;;12.57;6.85;;;;;;;11.38;62.07;100349.56;5089320;28;20040;-28
2022/10/31 00:05:08;;;;;;;14.30;7.20;;;;;;;10.69;63.13;100333.38;5088873;28;20058;-26
2022/10/31 00:07:33;;;;;;;14.30;7.70;;;;;;;10.97;62.29;100342.88;5089055;28;20020;-26
2022/10/31 00:09:58;;;;;;;17.58;7.05;;;;;;;11.27;61.83;100351.91;5088961;28;20020;-28
2022/10/31 00:12:24;;;;;;;14.98;7.07;;;;;;;10.59;64.11;100325.03;5088718;28;20031;-31
2022/10/31 00:14:49;;;;;;;12.77;6.88;;;;;;;10.78;63.37;100340.09;5088917;28;20454;-26
2022/10/31 00:17:15;;;;;;;13.13;6.55;;;;;;;10.92;61.82;100324.03;5089044;28;20032;-26
2022/10/31 00:19:40;;;;;;;14.20;6.72;;;;;;;11.05;60.79;100342.63;5088986;28;20444;-26
2022/10/31 00:22:05;;;;;;;15.35;6.97;;;;;;;10.87;62.16;100338.03;5088649;28;20031;-26
2022/10/31 00:24:31;;;;;;;17.23;8.30;;;;;;;11.03;61.56;100336.69;5088729;28;20032;-26
2022/10/31 00:26:56;;;;;;;14.45;8.13;;;;;;;11.02;61.06;100329.72;5088736;28;20028;-29
2022/10/31 00:29:22;;;;;;;19.85;8.57;;;;;;;10.94;61.34;100325.44;5088466;28;20028;-25
2022/10/31 00:31:47;;;;;;;16.45;8.43;;;;;;;10.67;62.54;100343.47;5089020;28;20642;-28
2022/10/31 00:34:12;;;;;;;16.80;8.43;;;;;;;10.80;62.07;100342.56;5087525;28;20036;-26
2022/10/31 00:36:38;;;;;;;16.35;8.02;;;;;;;10.76;61.62;100326.16;5088426;28;20027;-27
2022/10/31 00:39:03;;;;;;;19.52;8.68;;;;;;;10.99;61.42;100335.47;5088717;28;20028;-26
2022/10/31 00:41:29;;;;;;;17.65;7.80;;;;;;;10.51;62.75;100317.28;5088472;28;20065;-25
2022/10/31 00:43:55;;;;;;;16.67;8.13;;;;;;;10.13;64.66;100336.63;5088197;28;20404;-25
2022/10/31 00:46:20;;;;;;;18.33;7.93;;;;;;;10.39;63.40;100333.09;5088353;28;20028;-26
2022/10/31 00:48:46;;;;;;;21.35;8.15;;;;;;;10.40;63.10;100310.72;5088101;28;20032;-25
2022/10/31 00:51:11;;;;;;;15.93;8.15;;;;;;;10.57;63.07;100327.91;5088308;28;20472;-32
2022/10/31 00:53:36;;;;;;;17.15;8.82;;;;;;;10.65;62.54;100325.00;5088325;28;20027;-33
2022/10/31 00:56:03;;;;;;;21.67;9.10;;;;;;;10.60;62.73;100332.81;5088259;28;20030;-25
2022/10/31 00:58:28;;;;;;;19.98;8.15;;;;;;;10.62;62.39;100327.25;5087289;28;20031;-28
2022/10/31 01:00:56;;;;;;;17.77;8.88;;;;;;;10.79;62.26;100335.59;5088492;28;20028;-25
2022/10/31 01:03:28;;;;;;;19.48;8.45;;;;;;;10.82;62.81;100345.84;5088246;28;20031;-25
2022/10/31 01:06:00;;;;;;;17.30;8.32;;;;;;;10.75;62.75;100324.53;5087941;28;20508;-27
2022/10/31 01:08:27;;;;;;;17.13;8.07;;;;;;;10.79;62.43;100316.94;5087934;28;20115;-25
2022/10/31 01:11:04;;;;;;;12.68;7.10;;;;;;;10.95;61.96;100335.09;5087639;28;20064;-26
2022/10/31 01:13:30;;;;;;;12.73;6.45;;;;;;;10.94;62.29;100328.13;5087771;28;20024;-25
2022/10/31 01:15:57;;;;;;;14.70;7.30;;;;;;;10.76;62.71;100315.50;5069561;28;20097;-25
2022/10/31 01:18:22;;;;;;;13.00;6.22;;;;;;;10.60;63.80;100326.66;5069398;28;20463;-26
2022/10/31 01:20:57;;;;;;;14.18;7.60;;;;;;;10.59;63.98;100298.38;5087808;28;20134;-26
2022/10/31 01:23:23;;;;;;;11.55;6.80;;;;;;;10.48;65.67;100323.00;5069416;28;20099;-26
2022/10/31 01:25:48;;;;;;;13.48;7.20;;;;;;;10.34;65.09;100314.25;5069500;28;20127;-29
2022/10/31 01:28:13;;;;;;;12.80;7.05;;;;;;;10.12;65.61;100319.84;5087874;28;20024;-28
2022/10/31 01:30:39;;;;;;;15.30;6.85;;;;;;;10.43;64.73;100331.66;5087542;28;20403;-26
2022/10/31 01:33:04;;;;;;;14.85;7.25;;;;;;;10.22;65.31;100314.88;5069716;28;20035;-27
2022/10/31 01:35:30;;;;;;;14.55;6.82;;;;;;;10.34;65.05;100308.91;5087690;28;20032;-26
2022/10/31 01:37:55;;;;;;;12.13;6.68;;;;;;;10.48;65.73;100317.69;5087405;28;20055;-26
2022/10/31 01:40:20;;;;;;;13.25;7.30;;;;;;;10.41;65.76;100307.88;5085670;28;20091;-25
2022/10/31 01:42:46;;;;;;;10.90;6.57;;;;;;;10.77;64.45;100317.13;5087553;28;20024;-25
2022/10/31 01:45:13;;;;;;;12.80;6.53;;;;;;;10.93;64.42;100312.31;5069160;28;20032;-26
2022/10/31 01:47:45;;;;;;;14.57;6.90;;;;;;;11.21;63.84;100322.59;5087514;28;20103;-26
2022/10/31 01:50:31;;;;;;;12.27;6.28;;;;;;;11.39;63.09;100305.84;5069330;28;20522;-25
2022/10/31 01:52:58;;;;;;;12.23;7.78;;;;;;;11.32;63.08;100315.72;5087293;28;20085;-29
2022/10/31 01:55:28;;;;;;;14.03;6.60;;;;;;;10.83;64.82;100318.94;5087500;28;20397;-26
2022/10/31 01:57:56;;;;;;;12.27;6.70;;;;;;;10.73;64.78;100299.94;5068878;28;20024;-27
2022/10/31 02:00:22;;;;;;;14.93;6.40;;;;;;;10.86;65.55;100312.34;5087243;28;20020;-27
2022/10/31 02:02:49;;;;;;;13.68;7.40;;;;;;;10.89;66.33;100313.78;5085650;28;20127;-26
2022/10/31 02:05:25;;;;;;;13.27;6.90;;;;;;;10.89;65.42;100316.44;5068605;28;20135;-26
2022/10/31 02:07:51;;;;;;;14.45;7.50;;;;;;;10.91;65.40;100330.38;5068747;28;20020;-26
2022/10/31 02:10:16;;;;;;;13.77;6.68;;;;;;;11.19;64.99;100325.47;5090172;28;20405;-26
2022/10/31 02:12:42;;;;;;;13.68;6.70;;;;;;;11.32;64.32;100323.75;5091111;28;20028;-25
2022/10/31 02:15:09;;;;;;;12.55;6.85;;;;;;;11.32;64.01;100308.56;5091142;28;20020;-26
2022/10/31 02:17:34;;;;;;;12.20;6.38;;;;;;;10.99;65.42;100322.13;5089535;28;20461;-26
2022/10/31 02:20:14;;;;;;;10.45;6.45;;;;;;;10.74;67.30;100328.22;5091073;28;20564;-30
2022/10/31 02:23:07;;;;;;;16.63;7.18;;;;;;;10.72;67.38;100324.94;5091300;28;20028;-29
2022/10/31 02:25:32;;;;;;;17.23;6.70;;;;;;;10.78;66.38;100329.44;5091117;28;20028;-26
2022/10/31 02:28:39;;;;;;;12.55;6.50;;;;;;;10.97;64.94;100337.53;5090646;28;20031;-25
2022/10/31 02:31:49;;;;;;;15.07;7.50;;;;;;;11.05;64.47;100318.59;5063058;28;20914;-26
2022/10/31 02:34:20;;;;;;;14.15;7.47;;;;;;;10.83;64.26;100324.28;5090699;28;20035;-30
2022/10/31 02:36:45;;;;;;;14.23;6.85;;;;;;;11.16;64.37;100341.94;5090748;28;20077;-29
2022/10/31 02:39:40;;;;;;;16.98;6.68;;;;;;;11.22;64.01;100343.75;5091025;28;20032;-26
2022/10/31 02:42:17;;;;;;;13.18;6.38;;;;;;;11.40;63.06;100343.00;5089481;28;20415;-29
2022/10/31 02:45:10;;;;;;;10.88;6.47;;;;;;;11.30;62.78;100353.34;5089160;28;20035;-34
2022/10/31 02:47:38;;;;;;;12.90;6.65;;;;;;;11.39;62.13;100356.56;5071580;28;20040;-32
2022/10/31 02:50:12;;;;;;;12.32;6.70;;;;;;;11.03;63.62;100356.19;5090555;28;20553;-28
2022/10/31 02:52:38;;;;;;;15.68;7.53;;;;;;;11.10;63.31;100361.50;5090243;28;20024;-25
2022/10/31 02:55:29;;;;;;;14.63;6.65;;;;;;;11.27;62.34;100359.91;5090143;28;20498;-29
2022/10/31 02:58:01;;;;;;;15.70;6.93;;;;;;;11.00;63.01;100353.13;5089667;28;20024;-26
2022/10/31 03:00:27;;;;;;;16.42;7.38;;;;;;;10.92;64.36;100353.38;5071651;28;20032;-29
2022/10/31 03:02:58;;;;;;;15.40;7.50;;;;;;;11.07;63.79;100364.56;5088886;28;20039;-28
2022/10/31 03:05:32;;;;;;;13.82;7.32;;;;;;;10.93;64.93;100371.84;5089626;28;20052;-27
2022/10/31 03:08:16;;;;;;;15.05;7.75;;;;;;;11.05;63.46;100377.31;5088951;28;20028;-25
2022/10/31 03:11:09;;;;;;;16.83;9.27;;;;;;;11.08;64.26;100365.41;5089003;28;20056;-28
2022/10/31 03:13:49;;;;;;;13.90;7.82;;;;;;;11.31;63.10;100375.53;5085405;28;20032;-26
2022/10/31 03:16:35;;;;;;;18.27;8.50;;;;;;;11.29;64.11;100366.91;5071265;28;20105;-27
2022/10/31 03:19:18;;;;;;;14.45;7.80;;;;;;;11.18;63.64;100347.06;5089295;28;20472;-26
2022/10/31 03:21:45;;;;;;;15.55;8.70;;;;;;;11.19;64.16;100373.53;5088596;28;20039;-25
2022/10/31 03:24:13;;;;;;;14.35;8.05;;;;;;;11.33;63.47;100360.09;5088834;28;20024;-27
2022/10/31 03:26:45;;;;;;;16.05;8.90;;;;;;;11.50;62.60;100358.50;5088631;28;20032;-25
2022/10/31 03:29:15;;;;;;;13.82;8.25;;;;;;;11.80;62.08;100365.88;5088745;28;20108;-25
2022/10/31 03:31:56;;;;;;;15.05;7.90;;;;;;;11.86;61.06;100365.00;5088715;28;20476;-25
2022/10/31 03:34:22;;;;;;;17.42;8.88;;;;;;;11.55;61.89;100356.03;5088408;28;20717;-25
2022/10/31 03:36:51;;;;;;;16.85;8.90;;;;;;;11.72;62.38;100356.28;5088497;28;20032;-27
2022/10/31 03:39:20;;;;;;;15.30;8.00;;;;;;;11.88;62.18;100370.94;5088849;28;20032;-26
2022/10/31 03:42:02;;;;;;;15.60;8.90;;;;;;;11.88;62.13;100372.81;5088882;28;20039;-27
2022/10/31 03:44:30;;;;;;;16.15;8.20;;;;;;;11.86;62.39;100378.38;5088179;28;20039;-29
2022/10/31 03:46:55;;;;;;;19.65;8.80;;;;;;;11.71;62.44;100380.53;5087039;28;20030;-26
2022/10/31 03:49:21;;;;;;;18.90;9.20;;;;;;;11.73;62.25;100383.81;5088195;28;20031;-26
2022/10/31 03:51:49;;;;;;;19.67;10.32;;;;;;;11.76;61.36;100384.19;5088310;28;20036;-29
2022/10/31 03:54:27;;;;;;;16.95;9.13;;;;;;;11.90;62.11;100395.63;5088404;28;20102;-26
2022/10/31 03:56:54;;;;;;;16.60;8.73;;;;;;;11.41;63.49;100391.88;5088682;28;20444;-27
2022/10/31 03:59:26;;;;;;;18.02;10.82;;;;;;;11.24;64.86;100392.41;5088160;28;20262;-25
2022/10/31 04:01:56;;;;;;;14.88;9.55;;;;;;;11.18;65.04;100395.13;5069719;28;20039;-26
2022/10/31 04:04:22;;;;;;;15.65;8.70;;;;;;;11.27;64.89;100381.28;5087927;28;20032;-27
2022/10/31 04:06:50;;;;;;;18.58;9.82;;;;;;;11.44;64.39;100394.09;5048949;28;1133512;-28
2022/10/31 04:09:17;;;;;;;20.95;9.70;;;;;;;11.36;63.49;100383.69;5088937;28;20419;-27
2022/10/31 04:11:52;;;;;;;25.50;9.98;;;;;;;11.46;62.52;100390.22;5088820;28;20032;-28
2022/10/31 04:14:17;;;;;;;18.00;9.38;;;;;;;11.81;61.38;100407.59;5088479;28;20504;-31
2022/10/31 04:16:44;;;;;;;21.05;9.73;;;;;;;11.54;62.55;100396.31;5089025;28;20032;-26
2022/10/31 04:19:10;;;;;;;19.65;10.90;;;;;;;11.60;62.05;100393.56;5088992;28;20040;-26
2022/10/31 04:21:36;;;;;;;18.58;10.05;;;;;;;11.68;61.49;100386.34;5070644;28;20038;-26
2022/10/31 04:24:02;;;;;;;16.77;9.50;;;;;;;11.94;61.01;100398.69;5088726;28;20107;-30
2022/10/31 04:26:27;;;;;;;15.38;8.68;;;;;;;11.87;61.21;100401.41;5088472;28;20028;-27
2022/10/31 04:28:52;;;;;;;18.70;8.98;;;;;;;11.87;61.18;100385.38;5088533;28;20415;-30
2022/10/31 04:31:18;;;;;;;16.35;7.75;;;;;;;11.84;61.90;100407.97;5087790;28;20077;-27
2022/10/31 04:33:43;;;;;;;17.98;9.05;;;;;;;11.70;63.20;100410.97;5087047;28;20447;-26
2022/10/31 04:36:09;;;;;;;15.90;10.20;;;;;;;11.52;63.23;100409.06;5088472;28;20026;-26
2022/10/31 04:38:34;;;;;;;17.25;10.35;;;;;;;11.51;62.84;100397.56;5088346;28;20054;-25
2022/10/31 04:41:00;;;;;;;16.98;9.32;;;;;;;11.49;63.49;100402.31;5088409;28;20408;-25
2022/10/31 04:43:25;;;;;;;28.15;11.32;;;;;;;11.50;63.48;100403.09;5088225;28;20020;-26
2022/10/31 04:45:51;;;;;;;18.30;8.63;;;;;;;11.70;63.12;100410.97;5088587;28;20027;-25
2022/10/31 04:48:16;;;;;;;20.27;9.77;;;;;;;11.81;62.48;100404.91;5088280;28;20032;-26
2022/10/31 04:50:42;;;;;;;16.13;9.23;;;;;;;11.61;63.98;100419.25;5088306;28;20494;-25
2022/10/31 04:53:08;;;;;;;18.05;9.10;;;;;;;11.66;63.84;100424.75;5069999;28;20985;-25
2022/10/31 04:55:35;;;;;;;22.48;10.13;;;;;;;11.49;65.12;100409.50;5088147;28;20078;-30
2022/10/31 04:58:01;;;;;;;18.48;8.95;;;;;;;11.83;65.11;100437.63;5087938;28;20031;-27
2022/10/31 05:00:26;;;;;;;14.65;8.43;;;;;;;11.99;62.43;100447.78;5087904;28;20027;-29
2022/10/31 05:02:57;;;;;;;13.75;7.40;;;;;;;11.94;62.81;100444.94;5069586;28;20035;-26
2022/10/31 05:05:28;;;;;;;35.38;8.73;;;;;;;11.70;63.46;100443.03;5088136;28;20052;-27
2022/10/31 05:07:54;;;;;;;30.27;8.65;;;;;;;11.65;64.15;100455.19;5088250;28;20043;-26
2022/10/31 05:10:23;;;;;;;22.98;9.52;;;;;;;12.03;63.84;100465.03;5087831;28;20034;-26
2022/10/31 05:12:50;;;;;;;21.30;9.05;;;;;;;12.06;62.91;100443.19;5087696;28;20106;-29
2022/10/31 05:15:16;;;;;;;21.95;9.27;;;;;;;12.08;63.35;100458.19;5087678;28;20510;-28
2022/10/31 05:17:42;;;;;;;104.68;15.45;;;;;;;12.42;62.76;100448.81;5087873;28;20052;-28
2022/10/31 05:20:07;;;;;;;59.03;11.15;;;;;;;12.28;62.93;100450.81;5087525;28;20052;-29
2022/10/31 05:22:33;;;;;;;39.60;12.05;;;;;;;11.78;64.80;100434.75;5087525;28;20842;-28
2022/10/31 05:24:59;;;;;;;40.58;13.35;;;;;;;11.91;64.76;100461.41;5069044;28;20040;-30
2022/10/31 05:27:24;;;;;;;34.22;13.48;;;;;;;11.93;65.29;100479.88;5087589;28;20032;-30
2022/10/31 05:29:49;;;;;;;26.90;12.30;;;;;;;12.08;63.51;100460.88;5086121;28;20487;-28
2022/10/31 05:32:15;;;;;;;24.25;11.77;;;;;;;12.33;63.75;100468.88;5087413;28;20032;-34
2022/10/31 05:34:40;;;;;;;29.95;11.75;;;;;;;12.41;63.34;100461.38;5086222;28;20031;-28
2022/10/31 05:37:06;;;;;;;35.08;10.52;;;;;;;12.63;62.71;100463.63;5087378;28;20032;-28
2022/10/31 05:39:31;;;;;;;25.60;11.10;;;;;;;12.43;63.56;100458.47;5087327;28;20036;-28
2022/10/31 05:41:57;;;;;;;24.92;11.75;;;;;;;12.40;64.47;100470.44;5087114;28;20096;-28
2022/10/31 05:44:22;;;;;;;25.65;14.52;;;;;;;12.51;63.77;100473.44;5087287;28;20069;-29
2022/10/31 05:46:47;;;;;;;29.77;12.57;;;;;;;12.56;63.06;100479.72;5087150;28;20169;-28
2022/10/31 05:49:13;;;;;;;27.38;11.18;;;;;;;12.60;63.39;100477.44;5087546;28;20063;-32
2022/10/31 05:51:38;;;;;;;23.58;10.25;;;;;;;12.21;64.65;100507.00;5087102;28;20641;-29
2022/10/31 05:54:04;;;;;;;21.75;10.57;;;;;;;12.12;65.33;100504.84;5087157;28;20092;-29
2022/10/31 05:56:29;;;;;;;23.92;9.52;;;;;;;12.25;65.06;100504.72;5086736;28;20088;-29
2022/10/31 05:58:55;;;;;;;24.42;9.93;;;;;;;12.18;65.43;100509.31;5086875;28;20411;-30
2022/10/31 06:01:20;;;;;;;23.80;10.02;;;;;;;12.22;66.13;100507.84;5085735;28;20047;-30
2022/10/31 06:03:46;;;;;;;20.20;10.93;;;;;;;12.53;65.12;100512.28;5086926;28;20502;-31
2022/10/31 06:06:11;;;;;;;30.48;11.93;;;;;;;12.77;64.57;100509.78;5086962;28;20131;-30
2022/10/31 06:08:37;;;;;;;26.38;10.68;;;;;;;12.59;65.48;100518.63;5087013;28;20020;-29
2022/10/31 06:11:02;;;;;;;28.30;10.30;;;;;;;12.97;65.00;100522.94;5086804;28;20051;-29
2022/10/31 06:13:28;;;;;;;21.05;9.13;;;;;;;12.87;65.84;100523.47;5068723;28;20716;-27
2022/10/31 06:15:53;;;;;;;24.98;10.38;;;;;;;13.15;64.27;100530.97;5086882;28;20473;-26
2022/10/31 06:18:18;;;;;;;23.63;9.75;;;;;;;13.20;64.33;100533.00;5068511;28;20028;-27
2022/10/31 06:20:44;;;;;;;28.48;10.85;;;;;;;13.27;63.78;100529.16;5086872;28;20028;-28
2022/10/31 06:23:09;;;;;;;29.20;12.77;;;;;;;13.44;63.25;100544.66;5086735;28;20020;-28
2022/10/31 06:25:35;;;;;;;21.67;10.43;;;;;;;13.09;64.44;100531.84;5086582;28;20028;-26
2022/10/31 06:28:00;;;;;;;33.13;11.05;;;;;;;13.16;64.77;100540.66;5086775;28;20389;-30
2022/10/31 06:30:26;;;;;;;21.50;9.32;;;;;;;13.18;65.37;100551.16;5086791;28;20039;-28
2022/10/31 06:32:52;;;;;;;26.45;9.60;;;;;;;13.18;65.01;100530.53;5085265;28;20020;-27
2022/10/31 06:35:17;;;;;;;22.00;9.38;;;;;;;13.49;64.76;100541.31;5086834;28;20035;-25
2022/10/31 06:37:50;;;;;;;19.80;8.80;;;;;;;13.54;64.10;100552.16;5086461;28;20020;-26
2022/10/31 06:40:15;;;;;;;15.82;8.43;;;;;;;13.50;63.92;100533.03;5086412;28;20036;-31
2022/10/31 06:42:40;;;;;;;17.60;8.68;;;;;;;13.56;64.56;100544.72;5086478;28;20480;-30
2022/10/31 06:45:06;;;;;;;22.23;8.95;;;;;;;13.63;63.72;100538.22;5086716;28;20038;-28
2022/10/31 06:47:32;;;;;;;19.50;8.73;;;;;;;13.64;63.66;100537.16;5086590;28;20016;-29
2022/10/31 06:49:57;;;;;;;31.92;17.30;;;;;;;13.63;63.85;100538.22;5086808;28;20126;-29
2022/10/31 06:52:23;;;;;;;38.38;25.60;;;;;;;13.61;62.73;100551.03;5086290;28;20422;-25
2022/10/31 06:54:48;;;;;;;30.52;20.25;;;;;;;13.64;62.75;100539.84;5086916;28;20134;-27
2022/10/31 06:57:14;;;;;;;29.98;17.95;;;;;;;13.92;62.42;100546.47;5090332;28;20024;-26
2022/10/31 06:59:39;;;;;;;25.25;16.77;;;;;;;14.17;62.08;100559.69;5090439;28;20028;-29
2022/10/31 07:02:05;;;;;;;28.77;12.88;;;;;;;14.36;61.29;100557.72;5090333;28;20089;-25
2022/10/31 07:04:30;;;;;;;27.98;10.65;;;;;;;14.21;61.75;100565.44;5090010;28;20040;-30
2022/10/31 07:06:55;;;;;;;17.60;7.57;;;;;;;14.45;61.67;100566.28;5068317;28;20556;-25
2022/10/31 07:09:21;;;;;;;16.45;7.57;;;;;;;14.77;60.61;100548.00;5070066;28;20115;-26
2022/10/31 07:11:47;;;;;;;16.20;7.38;;;;;;;15.21;58.87;100558.31;5070008;28;20035;-31
2022/10/31 07:14:12;;;;;;;16.15;6.88;;;;;;;15.49;58.15;100560.22;5069845;28;20024;-28
2022/10/31 07:16:38;;;;;;;17.40;7.43;;;;;;;15.61;57.13;100542.16;5069656;28;20020;-27
2022/10/31 07:19:03;;;;;;;22.50;10.43;;;;;;;15.82;57.43;100531.81;5069694;28;20112;-31
2022/10/31 07:21:28;;;;;;;15.73;7.03;;;;;;;16.20;56.23;100541.03;5069562;28;20373;-26
2022/10/31 07:23:54;;;;;;;10.25;5.20;;;;;;;16.51;55.25;100546.91;5069709;28;20750;-30
2022/10/31 07:26:19;;;;;;;11.88;5.65;;;;;;;16.80;54.73;100553.81;5068028;28;20086;-27
2022/10/31 07:28:48;;;;;;;11.60;5.80;;;;;;;17.08;53.53;100541.28;5069749;28;20111;-26
2022/10/31 07:31:13;;;;;;;10.85;5.60;;;;;;;17.34;54.12;100549.66;5069427;28;20031;-25
2022/10/31 07:33:39;;;;;;;12.35;5.38;;;;;;;17.61;52.43;100557.78;5069371;28;20032;-27
2022/10/31 07:36:04;;;;;;;14.15;6.53;;;;;;;17.59;52.94;100533.78;5067834;28;20024;-31
2022/10/31 07:38:30;;;;;;;13.60;5.05;;;;;;;18.13;52.13;100554.53;5068889;28;20032;-27
2022/10/31 07:40:55;;;;;;;8.95;4.15;;;;;;;18.45;50.06;100535.63;5069288;28;20035;-26
2022/10/31 07:43:21;;;;;;;14.48;5.32;;;;;;;18.60;50.00;100550.31;5069232;28;20119;-28
2022/10/31 07:45:51;;;;;;;9.68;3.60;;;;;;;18.82;48.71;100552.91;5069159;28;20035;-27
2022/10/31 07:48:17;;;;;;;9.75;4.25;;;;;;;18.98;48.41;100549.19;5068803;28;20139;-26
2022/10/31 07:50:42;;;;;;;11.98;4.03;;;;;;;19.26;48.56;100533.63;5067418;28;20118;-30
2022/10/31 07:53:11;;;;;;;10.25;4.05;;;;;;;19.74;46.66;100563.28;5068586;28;20086;-28
2022/10/31 07:55:37;;;;;;;12.05;4.18;;;;;;;19.90;46.60;100554.09;5067757;28;20124;-30
2022/10/31 07:58:07;;;;;;;8.13;3.55;;;;;;;20.16;47.27;100540.56;5068021;28;20028;-28
2022/10/31 08:00:34;;;;;;;8.52;3.85;;;;;;;20.26;45.59;100546.78;5048500;28;20120;-27
2022/10/31 08:03:03;;;;;;;7.73;3.63;;;;;;;20.54;44.63;100568.19;5046916;28;20029;-28
2022/10/31 08:05:29;;;;;;;10.85;3.88;;;;;;;20.41;44.99;100553.28;5065843;28;20124;-28
2022/10/31 08:07:55;;;;;;;9.40;3.75;;;;;;;20.77;44.68;100564.91;5084711;28;20031;-31
2022/10/31 08:10:21;;;;;;;11.32;4.07;;;;;;;21.23;43.45;100563.97;5076689;28;20029;-27
2022/10/31 08:12:47;;;;;;;8.20;4.20;;;;;;;21.15;43.55;100565.34;5068573;28;20109;-27
2022/10/31 08:15:12;;;;;;;13.88;4.45;;;;;;;21.34;43.44;100564.72;5071034;28;20059;-30
2022/10/31 08:17:38;;;;;;;11.05;3.95;;;;;;;21.21;42.82;100552.56;5072616;28;20416;-29
2022/10/31 08:20:05;;;;;;;12.73;4.18;;;;;;;21.31;43.03;100554.41;5067797;28;20021;-31
2022/10/31 08:22:30;;;;;;;10.13;4.38;;;;;;;21.33;42.78;100554.94;5066239;28;20028;-28
2022/10/31 08:24:56;;;;;;;7.13;3.50;;;;;;;21.53;42.28;100545.91;5083690;28;20056;-27
2022/10/31 08:27:21;;;;;;;8.60;3.75;;;;;;;21.58;42.53;100564.91;5068170;28;20021;-26
2022/10/31 08:29:47;;;;;;;10.85;4.60;;;;;;;21.38;43.33;100554.94;5066521;28;20212;-30
2022/10/31 08:32:13;;;;;;;12.43;3.88;;;;;;;21.55;43.03;100566.25;5067681;28;20028;-28
2022/10/31 08:34:38;;;;;;;6.53;4.03;;;;;;;21.70;42.42;100562.66;5067813;28;20052;-27
2022/10/31 08:37:04;;;;;;;11.23;4.38;;;;;;;21.85;42.23;100548.16;5067943;28;20043;-27
2022/10/31 08:39:29;;;;;;;9.43;3.33;;;;;;;22.17;42.66;100555.78;5068315;28;20412;-27
2022/10/31 08:41:54;;;;;;;12.00;3.53;;;;;;;22.22;41.66;100552.22;5067592;28;20036;-27
2022/10/31 08:44:20;;;;;;;14.45;4.10;;;;;;;22.20;41.19;100559.84;5067682;28;20510;-27
2022/10/31 08:46:46;;;;;;;8.98;3.90;;;;;;;22.10;41.65;100543.63;5067768;28;20036;-26
2022/10/31 08:49:11;;;;;;;11.70;4.40;;;;;;;22.36;41.16;100558.66;5067507;28;20462;-28
2022/10/31 08:51:37;;;;;;;24.08;7.75;;;;;;;22.45;41.13;100562.38;5067667;28;20038;-27
2022/10/31 08:54:02;;;;;;;13.80;4.97;;;;;;;22.31;42.00;100564.09;5067891;28;20024;-27
2022/10/31 08:56:28;;;;;;;16.15;8.13;;;;;;;22.42;40.47;100557.50;5067345;28;20056;-30
2022/10/31 08:58:53;;;;;;;9.18;3.45;;;;;;;22.64;39.49;100562.47;5067605;28;20028;-27
2022/10/31 09:01:18;;;;;;;8.98;3.25;;;;;;;22.87;39.50;100562.75;5067644;28;20111;-26
2022/10/31 09:03:44;;;;;;;10.43;4.38;;;;;;;23.29;38.92;100565.81;5065850;28;20119;-28
2022/10/31 09:06:09;;;;;;;8.73;2.90;;;;;;;23.26;37.66;100559.88;5066830;28;20048;-27
2022/10/31 09:08:35;;;;;;;7.40;3.00;;;;;;;23.19;38.08;100556.72;5067030;28;20031;-27
2022/10/31 09:11:01;;;;;;;9.27;3.20;;;;;;;23.34;37.84;100572.03;5067290;28;20752;-29
2022/10/31 09:13:26;;;;;;;5.47;3.00;;;;;;;23.14;37.04;100562.19;5067328;28;20086;-30
2022/10/31 09:15:52;;;;;;;7.53;2.95;;;;;;;23.30;37.61;100564.75;5067297;28;20033;-27
2022/10/31 09:18:21;;;;;;;6.80;3.30;;;;;;;23.70;37.81;100559.81;5066388;28;20436;-30
2022/10/31 09:20:48;;;;;;;8.48;3.33;;;;;;;24.08;36.81;100573.44;5067150;28;20025;-27
2022/10/31 09:23:16;;;;;;;11.87;2.97;;;;;;;24.12;36.60;100571.75;5067505;28;20107;-28
2022/10/31 09:25:42;;;;;;;9.50;3.25;;;;;;;24.44;36.43;100566.28;5066994;28;20057;-27
2022/10/31 09:28:11;;;;;;;7.80;2.67;;;;;;;24.16;35.69;100564.59;5066996;28;20037;-27
2022/10/31 09:30:36;;;;;;;8.23;3.17;;;;;;;24.31;35.98;100561.59;5066613;28;20116;-29
2022/10/31 09:33:04;;;;;;;7.47;3.20;;;;;;;23.99;36.52;100557.78;5066934;28;20023;-26
2022/10/31 09:35:30;;;;;;;;;;;;;;;24.00;36.57;100570.28;5067078;28;20122;-28
2022/10/31 09:38:00;;;;;;;7.53;2.95;;;;;;;23.93;36.40;100561.69;5066958;28;19920;-27
2022/10/31 09:40:38;;;;;;;10.20;3.00;;;;;;;24.05;36.62;100564.75;5065988;28;20663;-27
2022/10/31 09:43:41;;;;;;;8.57;3.00;;;;;;;24.16;36.26;100553.69;5066480;28;20108;-27
2022/10/31 09:46:09;;;;;;;6.60;3.15;;;;;;;24.11;36.87;100556.50;5066650;28;20051;-27
2022/10/31 09:48:51;;;;;;;7.45;2.50;;;;;;;24.49;35.74;100551.75;5065698;28;20575;-27
2022/10/31 09:51:36;;;;;;;7.53;2.90;;;;;;;24.54;35.10;100546.25;5066656;28;20033;-27
2022/10/31 09:54:10;;;;;;;8.60;3.20;;;;;;;24.37;35.07;100548.69;5066043;28;20101;-26
2022/10/31 09:56:37;;;;;;;9.02;2.97;;;;;;;24.49;34.83;100537.31;5066840;28;20024;-27
2022/10/31 09:59:11;;;;;;;7.57;3.17;;;;;;;24.41;34.96;100544.25;5066490;28;20104;-28
2022/10/31 10:01:51;;;;;;;7.10;2.80;;;;;;;24.47;35.06;100537.59;5066902;28;20127;-26
2022/10/31 10:04:46;;;;;;;6.72;2.70;;;;;;;25.01;34.72;100535.25;5064896;28;20028;-27
2022/10/31 10:07:38;;;;;;;8.55;2.58;;;;;;;25.05;34.98;100547.19;5066824;28;20047;-27
2022/10/31 10:10:36;;;;;;;10.98;3.00;;;;;;;24.64;33.87;100548.78;5066626;28;20027;-28
2022/10/31 10:13:19;;;;;;;;;;;;;;;24.45;35.08;100537.91;5067038;28;20041;-27
2022/10/31 10:16:15;;;;;;;10.15;3.28;;;;;;;24.35;34.72;100540.81;5066754;28;19967;-29
2022/10/31 10:19:04;;;;;;;8.73;2.83;;;;;;;24.26;34.83;100542.63;5066448;28;20115;-30
2022/10/31 10:21:39;;;;;;;11.38;2.90;;;;;;;23.92;35.61;100541.00;5066450;28;20047;-28
2022/10/31 10:24:23;;;;;;;7.75;2.67;;;;;;;23.86;37.30;100534.84;5066561;28;20037;-30
2022/10/31 10:27:11;;;;;;;6.50;2.47;;;;;;;23.89;36.63;100522.53;5066275;28;20427;-26
2022/10/31 10:29:49;;;;;;;10.55;3.53;;;;;;;23.71;36.04;100526.06;5066685;28;20033;-30
2022/10/31 10:32:22;;;;;;;11.18;3.15;;;;;;;23.59;37.39;100512.88;5070339;28;20097;-28
2022/10/31 10:34:53;;;;;;;11.38;3.65;;;;;;;23.70;37.74;100502.63;5070011;28;20605;-27
2022/10/31 10:37:24;;;;;;;7.63;3.05;;;;;;;23.94;36.80;100519.72;5070184;28;20021;-27
2022/10/31 10:39:55;;;;;;;7.53;2.92;;;;;;;23.82;37.07;100517.47;5069794;28;20113;-29
2022/10/31 10:48:08;;;;;;;10.90;3.15;;;;;;;23.78;38.05;100505.56;5069975;28;20036;-28
2022/10/31 10:50:47;;;;;;;9.02;2.92;;;;;;;23.95;37.38;100498.75;5070061;28;20028;-27
2022/10/31 10:54:00;;;;;;;5.82;3.05;;;;;;;24.64;35.25;100504.31;5069919;28;20033;-29
2022/10/31 10:56:45;;;;;;;10.10;3.25;;;;;;;24.46;34.55;100503.28;5068004;28;20032;-29
2022/10/31 10:59:16;;;;;;;8.40;3.17;;;;;;;24.79;34.55;100500.50;5069996;28;20059;-27
2022/10/31 11:01:41;;;;;;;8.57;2.78;;;;;;;24.86;34.06;100501.69;5069750;28;20036;-27
2022/10/31 11:04:31;;;;;;;7.18;2.47;;;;;;;24.67;34.31;100509.97;5069655;28;20047;-27
2022/10/31 11:07:16;;;;;;;5.28;2.70;;;;;;;24.74;34.58;100504.13;5069649;28;20486;-27
2022/10/31 11:09:42;;;;;;;7.07;2.70;;;;;;;24.73;34.37;100488.88;5069275;28;20145;-29
2022/10/31 11:12:10;;;;;;;8.52;2.75;;;;;;;24.99;34.40;100493.81;5069229;28;20458;-27
2022/10/31 11:14:49;;;;;;;7.88;3.10;;;;;;;25.57;32.92;100476.69;5069344;28;20024;-29
2022/10/31 11:17:26;;;;;;;11.63;2.90;;;;;;;26.05;31.78;100476.09;5067639;28;20044;-27
2022/10/31 11:20:13;;;;;;;9.75;2.95;;;;;;;26.37;32.37;100487.81;5069414;28;20032;-28
2022/10/31 11:22:44;;;;;;;10.48;2.97;;;;;;;26.26;31.23;100478.28;5069169;28;20032;-29
2022/10/31 11:25:26;;;;;;;10.20;4.55;;;;;;;26.15;31.44;100468.75;5069262;28;20037;-27
2022/10/31 11:28:01;;;;;;;12.90;2.50;;;;;;;26.71;30.88;100486.38;5069037;28;20036;-30
2022/10/31 11:30:28;;;;;;;9.77;3.17;;;;;;;26.40;31.80;100481.75;5069107;28;20107;-29
2022/10/31 11:32:53;;;;;;;9.27;2.70;;;;;;;27.11;31.70;100471.81;5068959;28;20437;-27